createdAt,value
2019-05-11T00:00:49.947Z,5.3
2019-05-11T00:02:49.955Z,6.0
2019-05-11T00:04:50.302Z,6.0
2019-05-11T00:06:49.514Z,6.7
2019-05-11T00:08:49.555Z,5.4
2019-05-11T00:10:49.675Z,5.6
2019-05-11T00:12:49.745Z,5.4
2019-05-11T00:14:49.787Z,5.4
2019-05-11T00:16:50.017Z,5.4
2019-05-11T00:18:50.108Z,7.1
2019-05-11T00:20:50.145Z,5.7
2019-05-11T00:22:50.358Z,5.4
2019-05-11T00:24:50.372Z,5.9
2019-05-11T00:26:49.601Z,5.9
2019-05-11T00:28:49.695Z,6.2
2019-05-11T00:30:49.645Z,5.9
2019-05-11T00:32:49.681Z,5.9
2019-05-11T00:34:49.970Z,5.0
2019-05-11T00:36:50.004Z,5.0
2019-05-11T00:38:50.116Z,5.0
2019-05-11T00:40:50.225Z,5.3
2019-05-11T00:42:50.176Z,5.7
2019-05-11T00:44:50.342Z,5.7
2019-05-11T00:46:49.513Z,6.0
2019-05-11T00:48:49.511Z,5.9
2019-05-11T00:50:49.557Z,5.2
2019-05-11T00:52:49.613Z,5.4
2019-05-11T00:54:49.731Z,5.4
2019-05-11T00:56:49.893Z,5.2
2019-05-11T00:58:50.966Z,5.1
2019-05-11T01:00:50.136Z,5.5
2019-05-11T01:02:50.218Z,5.5
2019-05-11T01:04:49.652Z,5.5
2019-05-11T01:06:49.902Z,5.5
2019-05-11T01:08:50.129Z,6.4
2019-05-11T01:10:50.188Z,6.4
2019-05-11T01:12:50.204Z,5.5
2019-05-11T01:14:50.221Z,5.7
2019-05-11T01:16:49.486Z,5.6
2019-05-11T01:18:49.645Z,5.6
2019-05-11T01:20:49.663Z,5.7
2019-05-11T01:22:49.821Z,6.0
2019-05-11T01:24:49.927Z,6.0
2019-05-11T01:26:50.162Z,5.9
2019-05-11T01:28:50.319Z,5.9
2019-05-11T01:30:50.360Z,5.8
2019-05-11T01:32:50.426Z,5.8
2019-05-11T01:34:49.682Z,6.1
2019-05-11T01:36:49.860Z,6.1
2019-05-11T01:38:49.962Z,7.1
2019-05-11T01:40:58.419Z,7.1
2019-05-11T01:42:50.412Z,6.7
2019-05-11T01:44:50.359Z,6.7
2019-05-11T01:46:49.597Z,6.6
2019-05-11T01:48:49.520Z,6.3
2019-05-11T01:50:49.656Z,7.0
2019-05-11T01:52:49.786Z,7.0
2019-05-11T01:54:49.915Z,6.1
2019-05-11T01:56:50.081Z,6.4
2019-05-11T01:58:50.111Z,6.6
2019-05-11T02:00:50.108Z,6.6
2019-05-11T02:02:50.234Z,6.4
2019-05-11T02:04:49.568Z,7.2
2019-05-11T02:06:49.704Z,6.2
2019-05-11T02:08:49.957Z,6.1
2019-05-11T02:10:50.050Z,6.1
2019-05-11T02:12:50.098Z,6.1
2019-05-11T02:14:50.115Z,6.6
2019-05-11T02:16:50.226Z,6.6
2019-05-11T02:18:50.179Z,6.4
2019-05-11T02:20:50.241Z,6.4
2019-05-11T02:22:50.211Z,6.4
2019-05-11T02:24:50.288Z,5.9
2019-05-11T02:26:49.509Z,6.1
2019-05-11T02:28:49.562Z,5.9
2019-05-11T02:30:49.572Z,5.9
2019-05-11T02:32:49.510Z,6.6
2019-05-11T02:34:50.021Z,6.6
2019-05-11T02:36:50.183Z,6.6
2019-05-11T02:38:50.242Z,6.4
2019-05-11T02:40:50.312Z,6.4
2019-05-11T02:42:50.348Z,7.0
2019-05-11T02:44:49.579Z,7.6
2019-05-11T02:46:49.828Z,7.6
2019-05-11T02:48:49.828Z,8.9
2019-05-11T02:50:49.885Z,8.9
2019-05-11T02:52:49.957Z,8.6
2019-05-11T02:54:50.095Z,9.0
2019-05-11T02:56:50.324Z,8.5
2019-05-11T02:58:50.333Z,8.5
2019-05-11T03:00:50.354Z,8.5
2019-05-11T03:02:49.456Z,8.6
2019-05-11T03:04:49.863Z,8.9
2019-05-11T03:06:50.012Z,9.6
2019-05-11T03:08:50.062Z,9.6
2019-05-11T03:10:50.141Z,9.2
2019-05-11T03:12:50.160Z,8.9
2019-05-11T03:14:50.109Z,9.1
2019-05-11T03:16:50.249Z,9.5
2019-05-11T03:18:50.443Z,9.5
2019-05-11T03:20:50.426Z,9.8
2019-05-11T03:22:49.436Z,10.2
2019-05-11T03:24:49.551Z,10.5
2019-05-11T03:26:49.699Z,11.7
2019-05-11T03:28:49.778Z,11.7
2019-05-11T03:30:49.723Z,11.2
2019-05-11T03:32:49.949Z,10.0
2019-05-11T03:34:49.454Z,10.0
2019-05-11T03:36:49.888Z,12.0
2019-05-11T03:38:49.856Z,12.0
2019-05-11T03:40:49.774Z,11.8
2019-05-11T03:42:49.804Z,11.6
2019-05-11T03:44:49.827Z,11.6
2019-05-11T03:46:49.946Z,12.6
2019-05-11T03:48:49.923Z,12.8
2019-05-11T03:50:49.930Z,11.7
2019-05-11T03:52:49.924Z,11.3
2019-05-11T03:54:49.986Z,11.3
2019-05-11T03:56:50.306Z,12.9
2019-05-11T03:58:50.307Z,13.6
2019-05-11T04:00:50.388Z,12.6
2019-05-11T04:02:50.337Z,12.9
2019-05-11T04:04:49.644Z,12.8
2019-05-11T04:06:49.850Z,12.8
2019-05-11T04:08:49.904Z,11.0
2019-05-11T04:10:49.926Z,10.9
2019-05-11T04:12:50.078Z,11.5
2019-05-11T04:14:50.201Z,11.3
2019-05-11T04:16:49.454Z,11.3
2019-05-11T04:18:49.610Z,10.8
2019-05-11T04:20:49.642Z,12.5
2019-05-11T04:22:49.660Z,12.2
2019-05-11T04:24:49.670Z,12.2
2019-05-11T04:26:50.378Z,13.7
2019-05-11T04:28:49.486Z,13.8
2019-05-11T04:30:50.423Z,12.8
2019-05-11T04:32:49.708Z,13.3
2019-05-11T04:34:50.131Z,13.3
2019-05-11T04:36:49.502Z,12.9
2019-05-11T04:38:49.548Z,12.6
2019-05-11T04:40:49.564Z,13.6
2019-05-11T04:42:54.770Z,12.7
2019-05-11T04:44:52.221Z,12.7
2019-05-11T04:46:50.100Z,13.4
2019-05-11T04:48:50.222Z,14.8
2019-05-11T04:50:50.250Z,14.6
2019-05-11T04:52:50.311Z,13.2
2019-05-11T04:54:50.321Z,13.2
2019-05-11T04:56:49.560Z,12.5
2019-05-11T04:58:49.601Z,13.6
2019-05-11T05:00:49.733Z,13.2
2019-05-11T05:02:49.732Z,12.0
2019-05-11T05:04:50.123Z,12.0
2019-05-11T05:06:59.253Z,11.9
2019-05-11T05:08:49.766Z,11.9
2019-05-11T05:10:52.277Z,12.5
2019-05-11T05:12:51.237Z,12.4
2019-05-11T05:14:49.611Z,12.4
2019-05-11T05:16:49.763Z,11.3
2019-05-11T05:18:49.751Z,13.1
2019-05-11T05:20:49.823Z,12.1
2019-05-11T05:22:49.976Z,12.1
2019-05-11T05:24:50.128Z,12.0
2019-05-11T05:26:50.210Z,11.5
2019-05-11T05:28:50.306Z,11.0
2019-05-11T05:30:49.421Z,11.0
2019-05-11T05:32:49.440Z,10.9
2019-05-11T05:34:49.964Z,11.2
2019-05-11T05:36:49.624Z,11.0
2019-05-11T05:38:49.642Z,12.2
2019-05-11T05:40:49.676Z,10.4
2019-05-11T05:42:49.683Z,10.4
2019-05-11T05:44:49.716Z,11.5
2019-05-11T05:46:49.900Z,10.7
2019-05-11T05:48:50.046Z,10.9
2019-05-11T05:50:50.096Z,10.9
2019-05-11T05:52:50.173Z,10.0
2019-05-11T05:54:50.191Z,10.4
2019-05-11T05:56:50.292Z,10.3
2019-05-11T05:58:50.339Z,10.2
2019-05-11T06:00:50.413Z,10.2
2019-05-11T06:02:50.428Z,11.0
2019-05-11T06:04:49.917Z,11.1
2019-05-11T06:06:50.053Z,9.7
2019-05-11T06:08:50.048Z,9.7
2019-05-11T06:10:50.180Z,9.3
2019-05-11T06:12:50.202Z,9.3
2019-05-11T06:14:50.157Z,8.9
2019-05-11T06:16:50.337Z,8.6
2019-05-11T06:18:49.438Z,10.5
2019-05-11T06:20:50.396Z,8.7
2019-05-11T06:22:49.497Z,8.7
2019-05-11T06:24:49.536Z,8.7
2019-05-11T06:26:49.660Z,8.4
2019-05-11T06:28:49.760Z,7.9
2019-05-11T06:30:49.909Z,7.9
2019-05-11T06:32:49.942Z,8.4
2019-05-11T06:34:50.383Z,8.5
2019-05-11T06:36:49.510Z,8.1
2019-05-11T06:38:49.615Z,7.4
2019-05-11T06:40:49.573Z,7.4
2019-05-11T06:42:49.609Z,7.7
2019-05-11T06:44:49.641Z,7.7
2019-05-11T06:46:49.859Z,8.5
2019-05-11T06:48:49.853Z,8.5
2019-05-11T06:50:49.960Z,7.2
2019-05-11T06:52:50.150Z,6.5
2019-05-11T06:54:50.242Z,7.1
2019-05-11T06:56:50.377Z,6.8
2019-05-11T06:58:50.451Z,7.3
2019-05-11T07:00:49.534Z,7.3
2019-05-11T07:02:49.625Z,8.2
2019-05-11T07:04:50.043Z,7.7
2019-05-11T07:06:50.391Z,7.3
2019-05-11T07:08:50.428Z,7.3
2019-05-11T07:10:49.587Z,8.2
2019-05-11T07:12:49.535Z,7.6
2019-05-11T07:14:49.681Z,7.2
2019-05-11T07:16:49.803Z,7.8
2019-05-11T07:18:49.867Z,7.8
2019-05-11T07:20:51.021Z,8.6
2019-05-11T07:22:50.223Z,8.2
2019-05-11T07:24:50.383Z,8.1
2019-05-11T07:26:49.489Z,7.5
2019-05-11T07:28:49.446Z,7.5
2019-05-11T07:30:50.408Z,7.5
2019-05-11T07:32:49.479Z,7.2
2019-05-11T07:34:49.870Z,7.6
2019-05-11T07:36:50.088Z,7.6
2019-05-11T07:38:50.092Z,8.8
2019-05-11T07:40:50.122Z,5.7
2019-05-11T07:42:50.187Z,6.1
2019-05-11T07:44:50.187Z,5.4
2019-05-11T07:46:50.311Z,5.4
2019-05-11T07:48:50.269Z,5.2
2019-05-11T07:50:50.391Z,5.8
2019-05-11T07:52:50.301Z,5.1
2019-05-11T07:54:52.888Z,4.5
2019-05-11T07:56:50.358Z,4.5
2019-05-11T07:58:49.484Z,4.7
2019-05-11T08:00:49.444Z,4.7
2019-05-11T08:02:49.549Z,3.9
2019-05-11T08:04:50.016Z,4.0
2019-05-11T08:06:50.213Z,4.0
2019-05-11T08:08:50.238Z,4.3
2019-05-11T08:10:50.280Z,6.0
2019-05-11T08:12:50.391Z,6.3
2019-05-11T08:14:57.425Z,4.5
2019-05-11T08:16:49.537Z,4.5
2019-05-11T08:18:49.507Z,4.1
2019-05-11T08:20:49.604Z,5.9
2019-05-11T08:22:49.613Z,5.9
2019-05-11T08:24:49.686Z,3.9
2019-05-11T08:26:49.840Z,3.9
2019-05-11T08:28:49.802Z,2.9
2019-05-11T08:30:49.796Z,3.6
2019-05-11T08:32:49.830Z,3.1
2019-05-11T08:34:50.163Z,3.1
2019-05-11T08:36:50.232Z,3.3
2019-05-11T08:38:50.204Z,3.2
2019-05-11T08:40:50.155Z,2.8
2019-05-11T08:42:50.209Z,2.8
2019-05-11T08:44:50.220Z,2.6
2019-05-11T08:46:50.348Z,3.7
2019-05-11T08:48:49.477Z,3.7
2019-05-11T08:50:50.409Z,3.4
2019-05-11T08:52:49.562Z,2.9
2019-05-11T08:54:49.569Z,2.9
2019-05-11T08:56:49.725Z,3.0
2019-05-11T08:58:49.791Z,3.8
2019-05-11T09:00:49.809Z,2.7
2019-05-11T09:02:50.872Z,2.8
2019-05-11T09:04:49.585Z,2.8
2019-05-11T09:06:49.761Z,3.9
2019-05-11T09:08:49.869Z,3.7
2019-05-11T09:10:49.856Z,3.3
2019-05-11T09:12:49.917Z,2.6
2019-05-11T09:14:50.000Z,2.6
2019-05-11T09:16:50.112Z,2.6
2019-05-11T09:18:50.181Z,2.9
2019-05-11T09:20:50.190Z,2.5
2019-05-11T09:22:50.150Z,2.5
2019-05-11T09:24:50.150Z,2.4
2019-05-11T09:26:50.364Z,2.4
2019-05-11T09:28:50.296Z,2.0
2019-05-11T09:30:50.378Z,2.0
2019-05-11T09:32:49.473Z,2.1
2019-05-11T09:34:49.869Z,2.1
2019-05-11T09:36:49.930Z,2.5
2019-05-11T09:38:50.048Z,2.5
2019-05-11T09:40:50.114Z,2.7
2019-05-11T09:42:50.213Z,2.3
2019-05-11T09:44:50.181Z,2.5
2019-05-11T09:46:50.280Z,2.4
2019-05-11T09:48:50.365Z,2.2
2019-05-11T09:50:50.362Z,3.4
2019-05-11T09:52:50.417Z,3.4
2019-05-11T09:54:49.476Z,7.6
2019-05-11T09:56:49.759Z,2.1
2019-05-11T09:58:49.805Z,1.8
2019-05-11T10:00:49.845Z,1.7
2019-05-11T10:02:49.876Z,1.7
2019-05-11T10:04:50.128Z,2.1
2019-05-11T10:06:50.186Z,3.3
2019-05-11T10:08:50.214Z,1.6
2019-05-11T10:10:50.323Z,2.1
2019-05-11T10:12:52.809Z,2.1
2019-05-11T10:14:50.105Z,3.6
2019-05-11T10:16:50.297Z,6.6
2019-05-11T10:18:50.399Z,6.6
2019-05-11T10:20:49.485Z,7.0
2019-05-11T10:22:49.530Z,7.0
2019-05-11T10:24:49.629Z,17.9
2019-05-11T10:26:49.895Z,5.5
2019-05-11T10:28:49.956Z,3.9
2019-05-11T10:30:50.007Z,3.9
2019-05-11T10:32:50.039Z,2.9
2019-05-11T10:34:49.592Z,2.2
2019-05-11T10:36:49.806Z,2.1
2019-05-11T10:38:49.819Z,2.1
2019-05-11T10:40:49.811Z,2.6
2019-05-11T10:42:49.921Z,2.5
2019-05-11T10:44:49.934Z,2.0
2019-05-11T10:46:49.992Z,2.0
2019-05-11T10:48:50.035Z,3.2
2019-05-11T10:50:50.098Z,3.2
2019-05-11T10:52:50.127Z,5.3
2019-05-11T10:54:50.131Z,2.7
2019-05-11T10:56:50.261Z,2.7
2019-05-11T10:58:50.375Z,2.2
2019-05-11T11:00:49.474Z,2.2
2019-05-11T11:02:50.416Z,2.4
2019-05-11T11:04:49.891Z,2.5
2019-05-11T11:06:50.069Z,2.5
2019-05-11T11:08:50.067Z,2.9
2019-05-11T11:10:50.130Z,2.3
2019-05-11T11:12:50.161Z,4.6
2019-05-11T11:14:50.129Z,4.2
2019-05-11T11:16:50.396Z,3.2
2019-05-11T11:18:50.320Z,3.2
2019-05-11T11:20:50.299Z,4.6
2019-05-11T11:22:50.399Z,2.3
2019-05-11T11:24:50.359Z,2.9
2019-05-11T11:26:49.618Z,2.1
2019-05-11T11:28:49.566Z,2.1
2019-05-11T11:30:49.627Z,3.4
2019-05-11T11:32:49.793Z,1.9
2019-05-11T11:34:50.231Z,1.8
2019-05-11T11:36:49.495Z,1.9
2019-05-11T11:38:49.543Z,1.9
2019-05-11T11:40:49.533Z,2.2
2019-05-11T11:42:49.580Z,5.3
2019-05-11T11:44:49.702Z,5.3
2019-05-11T11:46:54.783Z,2.5
2019-05-11T11:48:50.127Z,1.9
2019-05-11T11:50:50.123Z,2.9
2019-05-11T11:52:50.213Z,3.2
2019-05-11T11:54:50.281Z,3.2
2019-05-11T11:56:49.476Z,1.9
2019-05-11T11:58:50.429Z,1.4
2019-05-11T12:00:50.424Z,2.4
2019-05-11T12:02:49.462Z,2.8
2019-05-11T12:04:50.182Z,2.2
2019-05-11T12:06:50.276Z,1.4
2019-05-11T12:08:50.243Z,1.4
2019-05-11T12:10:50.321Z,1.4
2019-05-11T12:12:49.432Z,1.2
2019-05-11T12:14:49.448Z,1.2
2019-05-11T12:17:03.856Z,3.5
2019-05-11T12:18:49.836Z,2.5
2019-05-11T12:20:49.850Z,1.9
2019-05-11T12:22:49.873Z,2.1
2019-05-11T12:24:49.872Z,2.8
2019-05-11T12:26:49.929Z,2.8
2019-05-11T12:28:50.025Z,1.7
2019-05-11T12:30:50.095Z,2.2
2019-05-11T12:32:50.079Z,2.0
2019-05-11T12:34:50.411Z,2.0
2019-05-11T12:36:49.489Z,1.1
2019-05-11T12:38:49.568Z,1.4
2019-05-11T12:40:49.602Z,2.9
2019-05-11T12:42:49.579Z,1.7
2019-05-11T12:44:49.693Z,1.7
2019-05-11T12:46:49.811Z,3.3
2019-05-11T12:48:49.870Z,1.3
2019-05-11T12:50:49.919Z,3.3
2019-05-11T12:52:50.043Z,3.3
2019-05-11T12:54:50.037Z,1.6
2019-05-11T12:56:50.248Z,3.8
2019-05-11T12:58:50.175Z,3.8
2019-05-11T13:00:50.213Z,3.2
2019-05-11T13:02:50.197Z,0.9
2019-05-11T13:04:49.449Z,0.9
2019-05-11T13:06:49.520Z,4.3
2019-05-11T13:08:49.549Z,1.5
2019-05-11T13:10:49.683Z,1.4
2019-05-11T13:12:49.661Z,1.6
2019-05-11T13:14:49.706Z,1.6
2019-05-11T13:16:49.727Z,1.9
2019-05-11T13:18:49.786Z,3.0
2019-05-11T13:20:49.784Z,0.6
2019-05-11T13:22:49.818Z,2.0
2019-05-11T13:24:49.877Z,2.0
2019-05-11T13:26:49.969Z,1.8
2019-05-11T13:28:50.005Z,0.8
2019-05-11T13:30:49.906Z,0.8
2019-05-11T13:32:49.997Z,1.0
2019-05-11T13:34:49.434Z,0.8
2019-05-11T13:36:49.575Z,1.0
2019-05-11T13:38:49.589Z,0.8
2019-05-11T13:40:49.615Z,1.9
2019-05-11T13:42:49.708Z,1.9
2019-05-11T13:44:49.625Z,0.8
2019-05-11T13:46:49.859Z,3.9
2019-05-11T13:48:49.886Z,0.7
2019-05-11T13:50:49.948Z,0.7
2019-05-11T13:52:49.949Z,1.7
2019-05-11T13:54:50.115Z,1.6
2019-05-11T13:56:50.264Z,0.8
2019-05-11T13:58:50.345Z,0.8
2019-05-11T14:00:49.479Z,1.1
2019-05-11T14:02:49.542Z,1.1
2019-05-11T14:04:50.250Z,0.8
2019-05-11T14:06:49.437Z,0.8
2019-05-11T14:08:49.548Z,1.0
2019-05-11T14:10:49.777Z,1.2
2019-05-11T14:12:49.778Z,1.2
2019-05-11T14:14:49.916Z,1.2
2019-05-11T14:16:50.314Z,0.8
2019-05-11T14:18:50.358Z,3.5
2019-05-11T14:20:50.430Z,0.8
2019-05-11T14:22:49.622Z,0.8
2019-05-11T14:24:49.672Z,1.1
2019-05-11T14:26:49.772Z,2.1
2019-05-11T14:28:49.804Z,1.4
2019-05-11T14:30:50.038Z,1.4
2019-05-11T14:32:50.179Z,1.8
2019-05-11T14:34:49.719Z,1.0
2019-05-11T14:36:49.844Z,1.6
2019-05-11T14:38:49.948Z,1.5
2019-05-11T14:40:50.051Z,1.5
2019-05-11T14:42:50.168Z,1.1
2019-05-11T14:44:50.312Z,1.1
2019-05-11T14:46:50.411Z,0.7
2019-05-11T14:48:50.438Z,0.7
2019-05-11T14:50:49.513Z,0.9
2019-05-11T14:52:49.665Z,1.6
2019-05-11T14:54:49.656Z,0.8
2019-05-11T14:56:49.774Z,0.8
2019-05-11T14:58:49.760Z,0.7
2019-05-11T15:00:49.773Z,0.7
2019-05-11T15:02:50.170Z,0.6
2019-05-11T15:04:50.207Z,0.7
2019-05-11T15:06:50.421Z,0.7
2019-05-11T15:08:49.620Z,0.6
2019-05-11T15:10:49.540Z,0.6
2019-05-11T15:12:49.675Z,0.6
2019-05-11T15:14:49.757Z,0.6
2019-05-11T15:16:49.979Z,0.8
2019-05-11T15:18:49.992Z,0.8
2019-05-11T15:20:50.077Z,2.0
2019-05-11T15:22:50.076Z,1.1
2019-05-11T15:24:50.161Z,0.8
2019-05-11T15:26:50.266Z,0.8
2019-05-11T15:28:50.324Z,0.8
2019-05-11T15:30:50.352Z,1.1
2019-05-11T15:32:50.441Z,0.6
2019-05-11T15:34:50.125Z,0.8
2019-05-11T15:36:50.271Z,0.7
2019-05-11T15:38:50.303Z,0.7
2019-05-11T15:40:50.320Z,0.7
2019-05-11T15:42:50.342Z,0.8
2019-05-11T15:44:50.415Z,1.4
2019-05-11T15:46:49.623Z,1.5
2019-05-11T15:48:58.713Z,1.5
2019-05-11T15:50:49.628Z,0.8
2019-05-11T15:52:49.603Z,0.7
2019-05-11T15:54:49.691Z,0.7
2019-05-11T15:56:49.775Z,0.7
2019-05-11T15:58:49.867Z,1.1
2019-05-11T16:00:49.814Z,0.9
2019-05-11T16:02:49.887Z,1.0
2019-05-11T16:04:50.179Z,1.0
2019-05-11T16:06:50.351Z,2.0
2019-05-11T16:08:50.377Z,2.0
2019-05-11T16:10:50.457Z,0.8
2019-05-11T16:12:50.375Z,0.8
2019-05-11T16:14:50.383Z,0.8
2019-05-11T16:16:49.712Z,1.1
2019-05-11T16:18:50.704Z,1.1
2019-05-11T16:20:50.241Z,0.9
2019-05-11T16:22:49.467Z,0.9
2019-05-11T16:24:49.493Z,1.2
2019-05-11T16:26:49.684Z,1.2
2019-05-11T16:28:49.863Z,1.1
2019-05-11T16:30:49.848Z,1.5
2019-05-11T16:32:49.888Z,1.2
2019-05-11T16:34:50.318Z,0.9
2019-05-11T16:36:49.550Z,0.9
2019-05-11T16:38:49.607Z,1.0
2019-05-11T16:40:49.615Z,2.3
2019-05-11T16:42:49.575Z,1.1
2019-05-11T16:44:49.574Z,1.1
2019-05-11T16:46:50.872Z,1.7
2019-05-11T16:48:50.093Z,3.5
2019-05-11T16:50:50.164Z,1.7
2019-05-11T16:52:50.193Z,1.7
2019-05-11T16:54:50.274Z,2.0
2019-05-11T16:56:50.431Z,1.3
2019-05-11T16:58:50.441Z,1.5
2019-05-11T17:00:49.481Z,1.3
2019-05-11T17:02:49.554Z,1.5
2019-05-11T17:04:50.057Z,1.5
2019-05-11T17:06:50.128Z,1.2
2019-05-11T17:08:50.188Z,1.6
2019-05-11T17:10:53.184Z,1.3
2019-05-11T17:12:50.329Z,1.4
2019-05-11T17:14:50.428Z,1.4
2019-05-11T17:16:49.614Z,1.2
2019-05-11T17:18:49.647Z,1.5
2019-05-11T17:20:49.740Z,2.1
2019-05-11T17:22:51.770Z,2.1
2019-05-11T17:24:50.086Z,1.2
2019-05-11T17:26:50.155Z,11.6
2019-05-11T17:28:50.217Z,11.6
2019-05-11T17:30:50.267Z,1.5
2019-05-11T17:32:50.276Z,1.5
2019-05-11T17:34:49.875Z,1.5
2019-05-11T17:36:50.020Z,3.2
2019-05-11T17:38:50.111Z,1.5
2019-05-11T17:40:50.135Z,1.7
2019-05-11T17:42:53.471Z,2.2
2019-05-11T17:44:50.284Z,2.2
2019-05-11T17:46:50.436Z,1.9
2019-05-11T17:48:50.355Z,1.8
2019-05-11T17:50:50.275Z,1.7
2019-05-11T17:52:50.340Z,1.7
2019-05-11T17:54:50.388Z,2.5
2019-05-11T17:56:49.546Z,2.0
2019-05-11T17:58:49.732Z,2.0
2019-05-11T18:00:49.768Z,1.9
2019-05-11T18:02:49.787Z,1.9
2019-05-11T18:04:50.144Z,3.3
2019-05-11T18:06:50.252Z,3.3
2019-05-11T18:08:50.236Z,1.9
2019-05-11T18:10:50.185Z,1.9
2019-05-11T18:12:50.275Z,1.9
2019-05-11T18:14:50.251Z,2.0
2019-05-11T18:16:50.350Z,2.2
2019-05-11T18:18:50.308Z,2.0
2019-05-11T18:20:50.402Z,2.0
2019-05-11T18:22:50.381Z,1.8
2019-05-11T18:24:49.452Z,2.5
2019-05-11T18:26:49.699Z,1.7
2019-05-11T18:28:49.866Z,1.7
2019-05-11T18:30:49.916Z,2.6
2019-05-11T18:32:50.007Z,1.7
2019-05-11T18:34:49.507Z,1.7
2019-05-11T18:36:49.741Z,1.7
2019-05-11T18:38:49.740Z,1.7
2019-05-11T18:40:49.851Z,2.1
2019-05-11T18:42:49.925Z,1.6
2019-05-11T18:44:49.896Z,1.5
2019-05-11T18:46:49.980Z,1.6
2019-05-11T18:48:49.900Z,1.6
2019-05-11T18:50:49.945Z,1.7
2019-05-11T18:52:49.933Z,1.7
2019-05-11T18:54:50.041Z,4.1
2019-05-11T18:56:50.291Z,2.0
2019-05-11T18:58:50.304Z,1.8
2019-05-11T19:00:50.314Z,1.8
2019-05-11T19:02:50.259Z,1.5
2019-05-11T19:04:49.589Z,1.6
2019-05-11T19:06:49.723Z,1.6
2019-05-11T19:08:49.704Z,1.4
2019-05-11T19:10:49.696Z,1.4
2019-05-11T19:12:49.754Z,1.7
2019-05-11T19:14:49.711Z,1.6
2019-05-11T19:16:49.764Z,1.8
2019-05-11T19:18:49.863Z,3.1
2019-05-11T19:20:49.927Z,3.1
2019-05-11T19:22:50.016Z,3.1
2019-05-11T19:24:50.050Z,2.0
2019-05-11T19:26:51.278Z,2.0
2019-05-11T19:28:49.558Z,2.0
2019-05-11T19:30:49.445Z,2.2
2019-05-11T19:32:49.508Z,2.1
2019-05-11T19:34:49.859Z,2.1
2019-05-11T19:36:50.118Z,2.2
2019-05-11T19:38:50.078Z,2.2
2019-05-11T19:40:50.139Z,2.3
2019-05-11T19:42:53.391Z,2.1
2019-05-11T19:44:49.597Z,2.1
2019-05-11T19:46:49.651Z,2.1
2019-05-11T19:48:49.682Z,1.9
2019-05-11T19:51:03.249Z,2.1
2019-05-11T19:52:49.686Z,2.0
2019-05-11T19:54:49.748Z,2.1
2019-05-11T19:56:52.247Z,2.0
2019-05-11T19:58:49.512Z,2.0
2019-05-11T20:00:50.438Z,2.1
2019-05-11T20:02:49.516Z,2.0
2019-05-11T20:04:49.842Z,2.0
2019-05-11T20:06:50.124Z,1.9
2019-05-11T20:08:50.146Z,1.9
2019-05-11T20:10:50.145Z,1.9
2019-05-11T20:12:50.124Z,1.8
2019-05-11T20:14:50.172Z,1.4
2019-05-11T20:16:50.291Z,1.4
2019-05-11T20:18:50.273Z,1.6
2019-05-11T20:20:50.270Z,1.5
2019-05-11T20:22:50.349Z,1.4
2019-05-11T20:24:50.363Z,1.4
2019-05-11T20:26:49.623Z,1.4
2019-05-11T20:28:49.738Z,1.6
2019-05-11T20:30:49.776Z,1.9
2019-05-11T20:32:49.861Z,1.6
2019-05-11T20:34:50.323Z,1.6
2019-05-11T20:36:49.588Z,1.6
2019-05-11T20:38:49.574Z,1.6
2019-05-11T20:40:49.660Z,1.6
2019-05-11T20:42:49.715Z,1.6
2019-05-11T20:44:49.759Z,1.7
2019-05-11T20:46:49.896Z,1.7
2019-05-11T20:48:50.051Z,1.4
2019-05-11T20:50:50.136Z,1.4
2019-05-11T20:52:50.142Z,1.4
2019-05-11T20:54:50.150Z,1.4
2019-05-11T20:56:50.402Z,1.4
2019-05-11T20:58:50.432Z,1.5
2019-05-11T21:00:49.648Z,1.5
2019-05-11T21:02:49.638Z,1.6
2019-05-11T21:04:50.038Z,1.6
2019-05-11T21:06:50.196Z,1.7
2019-05-11T21:08:50.183Z,1.8
2019-05-11T21:10:50.253Z,1.4
2019-05-11T21:12:50.266Z,1.5
2019-05-11T21:14:50.324Z,1.5
2019-05-11T21:16:49.527Z,1.6
2019-05-11T21:18:49.698Z,1.8
2019-05-11T21:20:49.653Z,1.8
2019-05-11T21:22:49.680Z,1.7
2019-05-11T21:24:49.742Z,1.9
2019-05-11T21:26:50.005Z,1.5
2019-05-11T21:28:49.995Z,1.4
2019-05-11T21:30:50.070Z,1.6
2019-05-11T21:32:50.088Z,1.6
2019-05-11T21:34:50.392Z,1.7
2019-05-11T21:36:49.715Z,1.5
2019-05-11T21:38:49.700Z,1.7
2019-05-11T21:40:49.823Z,1.4
2019-05-11T21:42:49.842Z,1.4
2019-05-11T21:44:49.849Z,1.4
2019-05-11T21:46:49.970Z,1.4
2019-05-11T21:48:49.984Z,2.1
2019-05-11T21:50:50.026Z,2.1
2019-05-11T21:52:50.305Z,1.6
2019-05-11T21:54:50.090Z,1.3
2019-05-11T21:56:50.296Z,1.3
2019-05-11T21:58:49.619Z,1.3
2019-05-11T22:00:49.756Z,1.6
2019-05-11T22:02:49.839Z,1.6
2019-05-11T22:04:50.260Z,1.5
2019-05-11T22:06:49.542Z,1.7
2019-05-11T22:08:50.782Z,1.4
2019-05-11T22:10:50.185Z,1.4
2019-05-11T22:12:50.351Z,1.4
2019-05-11T22:14:50.444Z,1.4
2019-05-11T22:16:49.633Z,2.3
2019-05-11T22:18:49.758Z,2.3
2019-05-11T22:20:49.803Z,1.4
2019-05-11T22:22:49.978Z,1.4
2019-05-11T22:24:50.192Z,1.7
2019-05-11T22:26:49.482Z,1.7
2019-05-11T22:28:49.559Z,1.7
2019-05-11T22:30:49.850Z,1.7
2019-05-11T22:32:49.956Z,1.7
2019-05-11T22:34:50.298Z,1.4
2019-05-11T22:36:49.565Z,1.3
2019-05-11T22:38:49.537Z,1.3
2019-05-11T22:40:49.607Z,1.4
2019-05-11T22:42:49.847Z,1.3
2019-05-11T22:44:49.903Z,1.3
2019-05-11T22:46:50.096Z,1.3
2019-05-11T22:48:50.285Z,1.6
2019-05-11T22:50:50.550Z,1.8
2019-05-11T22:52:49.942Z,1.6
2019-05-11T22:54:50.028Z,1.6
2019-05-11T22:56:50.330Z,1.5
2019-05-11T22:58:49.897Z,1.5
2019-05-11T23:00:50.281Z,1.7
2019-05-11T23:02:49.541Z,1.5
2019-05-11T23:04:49.918Z,1.4
2019-05-11T23:06:50.174Z,1.4
2019-05-11T23:08:53.949Z,1.3
2019-05-11T23:10:50.222Z,1.3
2019-05-11T23:12:50.293Z,1.3
2019-05-11T23:14:49.443Z,1.1
2019-05-11T23:16:49.984Z,1.2
2019-05-11T23:18:50.161Z,1.3
2019-05-11T23:20:50.291Z,1.3
2019-05-11T23:22:56.619Z,1.3
2019-05-11T23:24:50.425Z,1.1
2019-05-11T23:26:49.557Z,1.4
2019-05-11T23:28:49.732Z,1.4
2019-05-11T23:30:49.919Z,1.2
2019-05-11T23:32:50.045Z,1.2
2019-05-11T23:34:49.474Z,1.6
2019-05-11T23:36:49.891Z,1.3
2019-05-11T23:38:50.016Z,1.3
2019-05-11T23:40:50.149Z,1.7
2019-05-11T23:42:50.159Z,1.6
2019-05-11T23:44:50.286Z,1.7
2019-05-11T23:46:49.594Z,1.7
2019-05-11T23:48:49.692Z,1.7
2019-05-11T23:50:49.733Z,1.9
2019-05-11T23:53:04.111Z,2.6
2019-05-11T23:54:50.131Z,2.0
2019-05-11T23:56:50.358Z,1.8
2019-05-11T23:58:49.539Z,1.8
